LPE2474 SPJC-MMMX
Flight info
| Callsign | LPE2474 |
|---|---|
| Flight time | N/A |
| Altitude | 34000 |
| Route | SPJC/16L N0469F340 TELE2F ATATU UV1 TAL UM542 ATENO DCT PUGSU/N0466F360 DCT EKEDA DCT LIXAS UZ512 RADIM UL318 IZT UT157 LARLO LARL4A MMMX/05R |
| Aircraft | B763/H-SDE3FGHIM3RWXY/LB1 |
Departure
| Time | 2026-05-07 20:53 |
|---|---|
| Airport | Jorge Chávez International Airport (SPJC) |
Arrival
| Time | N/A |
|---|---|
| Airport | Mexico City Benito Juárez International Airport (MMMX) |
| Time | Latitude | Longitude | Altitude | Speed | Heading |
|---|---|---|---|---|---|
| 2026-05-07 20:17 | -12.02604 | -77.11743 | 131 ft | 0 kts | 244° |
| 2026-05-07 20:38 | -12.02603 | -77.11742 | 131 ft | 1 kts | 244° |
| 2026-05-07 20:39 | -12.02597 | -77.11729 | 130 ft | 2 kts | 244° |
| 2026-05-07 20:39 | -12.02590 | -77.11715 | 130 ft | 2 kts | 244° |
| 2026-05-07 20:39 | -12.02584 | -77.11701 | 130 ft | 2 kts | 244° |
| 2026-05-07 20:39 | -12.02577 | -77.11687 | 130 ft | 2 kts | 244° |
| 2026-05-07 20:40 | -12.02571 | -77.11675 | 130 ft | 2 kts | 256° |
| 2026-05-07 20:40 | -12.02571 | -77.11663 | 130 ft | 2 kts | 292° |
| 2026-05-07 20:40 | -12.02579 | -77.11652 | 130 ft | 2 kts | 330° |
| 2026-05-07 20:40 | -12.02593 | -77.11646 | 130 ft | 1 kts | 341° |
| 2026-05-07 20:41 | -12.02595 | -77.11646 | 130 ft | 1 kts | 339° |
| 2026-05-07 20:41 | -12.02572 | -77.11657 | 130 ft | 2 kts | 333° |
| 2026-05-07 20:41 | -12.02568 | -77.11659 | 130 ft | 0 kts | 334° |
| 2026-05-07 20:43 | -12.02567 | -77.11659 | 130 ft | 0 kts | 334° |
| 2026-05-07 20:44 | -12.02564 | -77.11661 | 130 ft | 1 kts | 334° |
| 2026-05-07 20:44 | -12.02545 | -77.11671 | 130 ft | 4 kts | 335° |
| 2026-05-07 20:44 | -12.02516 | -77.11684 | 130 ft | 4 kts | 334° |
| 2026-05-07 20:45 | -12.02482 | -77.11701 | 130 ft | 5 kts | 334° |
| 2026-05-07 20:45 | -12.02445 | -77.11719 | 130 ft | 5 kts | 334° |
| 2026-05-07 20:45 | -12.02410 | -77.11734 | 130 ft | 3 kts | 356° |
| 2026-05-07 20:45 | -12.02388 | -77.11721 | 130 ft | 4 kts | 47° |
| 2026-05-07 20:46 | -12.02370 | -77.11690 | 130 ft | 6 kts | 67° |
| 2026-05-07 20:46 | -12.02343 | -77.11634 | 130 ft | 10 kts | 49° |
| 2026-05-07 20:46 | -12.02280 | -77.11642 | 130 ft | 9 kts | 334° |
| 2026-05-07 20:46 | -12.02219 | -77.11672 | 130 ft | 10 kts | 333° |
| 2026-05-07 20:47 | -12.02124 | -77.11720 | 130 ft | 16 kts | 334° |
| 2026-05-07 20:47 | -12.02020 | -77.11769 | 130 ft | 15 kts | 335° |
| 2026-05-07 20:47 | -12.01924 | -77.11816 | 130 ft | 14 kts | 334° |
| 2026-05-07 20:47 | -12.01853 | -77.11845 | 130 ft | 7 kts | 15° |
| 2026-05-07 20:48 | -12.01824 | -77.11811 | 130 ft | 6 kts | 58° |
| 2026-05-07 20:48 | -12.01798 | -77.11803 | 130 ft | 4 kts | 356° |
| 2026-05-07 20:48 | -12.01755 | -77.11819 | 130 ft | 7 kts | 333° |
| 2026-05-07 20:48 | -12.01706 | -77.11843 | 130 ft | 9 kts | 333° |
| 2026-05-07 20:49 | -12.01635 | -77.11878 | 130 ft | 14 kts | 334° |
| 2026-05-07 20:49 | -12.01528 | -77.11933 | 130 ft | 19 kts | 331° |
| 2026-05-07 20:49 | -12.01396 | -77.11998 | 130 ft | 21 kts | 334° |
| 2026-05-07 20:49 | -12.01275 | -77.12077 | 130 ft | 19 kts | 310° |
| 2026-05-07 20:50 | -12.01186 | -77.12176 | 130 ft | 18 kts | 328° |
| 2026-05-07 20:50 | -12.01074 | -77.12230 | 130 ft | 17 kts | 335° |
| 2026-05-07 20:50 | -12.00975 | -77.12282 | 130 ft | 15 kts | 334° |
| 2026-05-07 20:50 | -12.00876 | -77.12309 | 130 ft | 13 kts | 20° |
| 2026-05-07 20:51 | -12.00830 | -77.12240 | 130 ft | 11 kts | 65° |
| 2026-05-07 20:51 | -12.00799 | -77.12172 | 130 ft | 9 kts | 66° |
| 2026-05-07 20:51 | -12.00793 | -77.12122 | 130 ft | 4 kts | 129° |
| 2026-05-07 20:51 | -12.00814 | -77.12111 | 130 ft | 0 kts | 155° |
| 2026-05-07 20:52 | -12.00814 | -77.12110 | 130 ft | 0 kts | 155° |
| 2026-05-07 20:52 | -12.00913 | -77.12063 | 130 ft | 40 kts | 153° |
| 2026-05-07 20:52 | -12.01329 | -77.11859 | 130 ft | 90 kts | 153° |
| 2026-05-07 20:52 | -12.02041 | -77.11505 | 130 ft | 134 kts | 154° |
| 2026-05-07 20:53 | -12.02992 | -77.11029 | 158 ft | 169 kts | 154° |
| 2026-05-07 20:53 | -12.04095 | -77.10481 | 522 ft | 177 kts | 158° |
| 2026-05-07 20:53 | -12.05194 | -77.09983 | 1123 ft | 175 kts | 156° |
| 2026-05-07 20:53 | -12.06310 | -77.09463 | 1639 ft | 179 kts | 155° |
| 2026-05-07 20:54 | -12.07477 | -77.08907 | 2019 ft | 190 kts | 154° |
| 2026-05-07 20:54 | -12.08724 | -77.08278 | 2226 ft | 211 kts | 153° |
| 2026-05-07 20:54 | -12.10175 | -77.07537 | 2281 ft | 245 kts | 153° |
| 2026-05-07 20:54 | -12.11737 | -77.06739 | 2862 ft | 255 kts | 153° |
| 2026-05-07 20:55 | -12.13436 | -77.06130 | 3403 ft | 267 kts | 175° |
| 2026-05-07 20:55 | -12.15284 | -77.06412 | 4162 ft | 272 kts | 204° |
| 2026-05-07 20:55 | -12.16791 | -77.07577 | 4860 ft | 278 kts | 233° |
| 2026-05-07 20:55 | -12.17591 | -77.09355 | 5552 ft | 282 kts | 261° |
| 2026-05-07 20:56 | -12.17525 | -77.11359 | 6019 ft | 291 kts | 283° |
| 2026-05-07 20:56 | -12.17054 | -77.13415 | 6354 ft | 300 kts | 281° |
| 2026-05-07 20:56 | -12.16692 | -77.15479 | 7264 ft | 296 kts | 279° |
| 2026-05-07 20:56 | -12.16370 | -77.17563 | 7956 ft | 300 kts | 278° |
| 2026-05-07 20:57 | -12.16074 | -77.19672 | 8715 ft | 300 kts | 277° |
| 2026-05-07 20:57 | -12.15797 | -77.21757 | 9498 ft | 299 kts | 277° |
| 2026-05-07 20:57 | -12.15523 | -77.23879 | 10056 ft | 305 kts | 277° |
| 2026-05-07 20:57 | -12.15008 | -77.26006 | 10357 ft | 322 kts | 293° |
| 2026-05-07 20:58 | -12.13919 | -77.27876 | 10432 ft | 344 kts | 310° |
| 2026-05-07 20:58 | -12.12076 | -77.29542 | 10845 ft | 355 kts | 329° |
| 2026-05-07 20:58 | -12.09919 | -77.30726 | 11526 ft | 357 kts | 332° |
| 2026-05-07 20:58 | -12.07740 | -77.32080 | 12172 ft | 361 kts | 328° |
| 2026-05-07 20:59 | -12.05628 | -77.33456 | 12800 ft | 365 kts | 327° |
| 2026-05-07 20:59 | -12.03498 | -77.34901 | 13400 ft | 370 kts | 327° |
| 2026-05-07 20:59 | -12.01361 | -77.36368 | 14003 ft | 373 kts | 326° |
| 2026-05-07 20:59 | -11.99200 | -77.37865 | 14544 ft | 378 kts | 326° |
| 2026-05-07 21:00 | -11.97329 | -77.39167 | 15035 ft | 381 kts | 326° |
| 2026-05-07 21:00 | -11.95117 | -77.40710 | 15585 ft | 385 kts | 326° |
| 2026-05-07 21:00 | -11.92889 | -77.42265 | 16127 ft | 387 kts | 326° |
| 2026-05-07 21:00 | -11.90671 | -77.43813 | 16659 ft | 391 kts | 327° |
| 2026-05-07 21:01 | -11.88670 | -77.45209 | 17145 ft | 393 kts | 327° |
| 2026-05-07 21:01 | -11.86383 | -77.46806 | 17636 ft | 397 kts | 327° |
| 2026-05-07 21:01 | -11.84063 | -77.48425 | 18147 ft | 399 kts | 327° |
| 2026-05-07 21:01 | -11.81899 | -77.49935 | 18586 ft | 403 kts | 327° |
| 2026-05-07 21:02 | -11.79576 | -77.51556 | 19083 ft | 405 kts | 326° |
| 2026-05-07 21:02 | -11.77220 | -77.53173 | 19535 ft | 408 kts | 329° |
| 2026-05-07 21:02 | -11.74794 | -77.54642 | 20007 ft | 410 kts | 329° |
| 2026-05-07 21:02 | -11.72320 | -77.56162 | 20456 ft | 413 kts | 329° |
| 2026-05-07 21:03 | -11.69835 | -77.57682 | 20885 ft | 417 kts | 329° |
| 2026-05-07 21:03 | -11.67348 | -77.59207 | 21326 ft | 419 kts | 329° |
| 2026-05-07 21:03 | -11.64840 | -77.60744 | 21799 ft | 421 kts | 329° |
| 2026-05-07 21:03 | -11.62333 | -77.62283 | 22182 ft | 425 kts | 329° |
| 2026-05-07 21:04 | -11.59802 | -77.63834 | 22585 ft | 427 kts | 329° |
| 2026-05-07 21:04 | -11.57314 | -77.65359 | 23088 ft | 429 kts | 329° |
| 2026-05-07 21:04 | -11.54743 | -77.66934 | 23658 ft | 429 kts | 328° |
| 2026-05-07 21:04 | -11.52171 | -77.68510 | 24178 ft | 431 kts | 328° |
| 2026-05-07 21:05 | -11.49608 | -77.70081 | 24730 ft | 432 kts | 328° |
| 2026-05-07 21:05 | -11.47010 | -77.71672 | 25215 ft | 435 kts | 328° |
| 2026-05-07 21:05 | -11.44403 | -77.73269 | 25716 ft | 436 kts | 327° |
| 2026-05-07 21:05 | -11.41814 | -77.74854 | 26195 ft | 438 kts | 327° |
| 2026-05-07 21:06 | -11.39205 | -77.76452 | 26654 ft | 440 kts | 327° |
| 2026-05-07 21:06 | -11.36550 | -77.78076 | 27108 ft | 442 kts | 327° |
| 2026-05-07 21:06 | -11.33920 | -77.79685 | 27577 ft | 443 kts | 327° |
| 2026-05-07 21:06 | -11.31240 | -77.81325 | 28015 ft | 445 kts | 326° |
| 2026-05-07 21:07 | -11.28583 | -77.82950 | 28458 ft | 447 kts | 326° |
| 2026-05-07 21:07 | -11.25901 | -77.84590 | 28850 ft | 449 kts | 326° |
| 2026-05-07 21:07 | -11.23218 | -77.86231 | 29292 ft | 451 kts | 326° |
| 2026-05-07 21:07 | -11.20527 | -77.87877 | 29642 ft | 454 kts | 326° |
| 2026-05-07 21:08 | -11.17791 | -77.89548 | 30048 ft | 456 kts | 326° |
| 2026-05-07 21:08 | -11.15077 | -77.91206 | 30439 ft | 458 kts | 326° |
| 2026-05-07 21:08 | -11.12336 | -77.92880 | 30819 ft | 461 kts | 326° |
| 2026-05-07 21:08 | -11.09571 | -77.94569 | 31150 ft | 464 kts | 326° |
| 2026-05-07 21:09 | -11.06791 | -77.96267 | 31562 ft | 465 kts | 326° |
| 2026-05-07 21:09 | -11.03956 | -77.97848 | 31851 ft | 470 kts | 330° |
| 2026-05-07 21:09 | -11.01024 | -77.99366 | 32346 ft | 468 kts | 329° |
| 2026-05-07 21:09 | -10.98133 | -78.00877 | 32994 ft | 463 kts | 329° |
| 2026-05-07 21:10 | -10.95303 | -78.02360 | 33525 ft | 461 kts | 329° |
| 2026-05-07 21:10 | -10.92455 | -78.03853 | 33897 ft | 458 kts | 329° |
| 2026-05-07 21:10 | -10.89738 | -78.05277 | 33859 ft | 456 kts | 329° |
| 2026-05-07 21:11 | -10.84137 | -78.08215 | 33878 ft | 453 kts | 329° |
| 2026-05-07 21:11 | -10.75673 | -78.12653 | 33880 ft | 456 kts | 329° |
| 2026-05-07 21:12 | -10.70026 | -78.15612 | 33875 ft | 455 kts | 329° |
| 2026-05-07 21:12 | -10.64374 | -78.18572 | 33878 ft | 455 kts | 329° |
| 2026-05-07 21:13 | -10.58732 | -78.21527 | 33877 ft | 456 kts | 329° |
| 2026-05-07 21:13 | -10.53074 | -78.24487 | 33874 ft | 456 kts | 329° |
| 2026-05-07 21:14 | -10.47432 | -78.27438 | 33875 ft | 456 kts | 329° |
| 2026-05-07 21:14 | -10.41799 | -78.30384 | 33872 ft | 456 kts | 329° |
| 2026-05-07 21:15 | -10.36149 | -78.33337 | 33872 ft | 455 kts | 329° |
| 2026-05-07 21:15 | -10.30511 | -78.36283 | 33870 ft | 455 kts | 329° |
| 2026-05-07 21:16 | -10.24851 | -78.39239 | 33868 ft | 456 kts | 329° |
| 2026-05-07 21:16 | -10.19186 | -78.42196 | 33869 ft | 456 kts | 329° |
| 2026-05-07 21:17 | -10.13545 | -78.45139 | 33876 ft | 456 kts | 329° |
| 2026-05-07 21:17 | -10.07922 | -78.48073 | 33873 ft | 456 kts | 329° |
| 2026-05-07 21:18 | -10.02245 | -78.51033 | 33871 ft | 456 kts | 329° |
| 2026-05-07 21:18 | -9.96575 | -78.53989 | 33871 ft | 456 kts | 329° |
| 2026-05-07 21:19 | -9.90907 | -78.56942 | 33877 ft | 456 kts | 329° |
| 2026-05-07 21:19 | -9.85399 | -78.59811 | 33880 ft | 457 kts | 329° |
| 2026-05-07 21:20 | -9.79716 | -78.62769 | 33877 ft | 457 kts | 329° |
| 2026-05-07 21:20 | -9.74078 | -78.65703 | 33888 ft | 456 kts | 329° |
| 2026-05-07 21:21 | -9.68382 | -78.68649 | 33895 ft | 458 kts | 329° |
| 2026-05-07 21:21 | -9.62677 | -78.71555 | 33896 ft | 458 kts | 329° |
| 2026-05-07 21:22 | -9.56992 | -78.74451 | 33900 ft | 457 kts | 329° |
| 2026-05-07 21:22 | -9.51291 | -78.77356 | 33889 ft | 458 kts | 330° |
| 2026-05-07 21:23 | -9.45594 | -78.80257 | 33893 ft | 459 kts | 329° |
| 2026-05-07 21:23 | -9.39870 | -78.83170 | 33898 ft | 459 kts | 329° |
| 2026-05-07 21:24 | -9.34126 | -78.86092 | 33898 ft | 458 kts | 330° |
| 2026-05-07 21:24 | -9.28449 | -78.88980 | 33894 ft | 459 kts | 329° |
| 2026-05-07 21:25 | -9.22728 | -78.91888 | 33890 ft | 459 kts | 329° |
| 2026-05-07 21:25 | -9.16967 | -78.94817 | 33885 ft | 460 kts | 329° |
| 2026-05-07 21:26 | -9.11283 | -78.97705 | 33871 ft | 458 kts | 329° |
| 2026-05-07 21:26 | -9.05567 | -79.00609 | 33870 ft | 458 kts | 329° |
| 2026-05-07 21:27 | -8.99847 | -79.03513 | 33862 ft | 460 kts | 330° |
| 2026-05-07 21:27 | -8.94083 | -79.06439 | 33863 ft | 461 kts | 329° |
| 2026-05-07 21:28 | -8.88359 | -79.09344 | 33861 ft | 461 kts | 330° |
| 2026-05-07 21:28 | -8.82603 | -79.12262 | 33860 ft | 461 kts | 329° |
| 2026-05-07 21:29 | -8.76856 | -79.15176 | 33857 ft | 460 kts | 329° |
| 2026-05-07 21:29 | -8.71151 | -79.18069 | 33858 ft | 460 kts | 330° |
| 2026-05-07 21:30 | -8.65416 | -79.20974 | 33860 ft | 459 kts | 329° |
| 2026-05-07 21:30 | -8.59667 | -79.23886 | 33861 ft | 460 kts | 329° |
| 2026-05-07 21:31 | -8.53962 | -79.26775 | 33863 ft | 461 kts | 329° |
| 2026-05-07 21:31 | -8.48229 | -79.29677 | 33862 ft | 461 kts | 329° |
| 2026-05-07 21:32 | -8.42491 | -79.32580 | 33860 ft | 460 kts | 330° |
| 2026-05-07 21:32 | -8.36734 | -79.35492 | 33861 ft | 461 kts | 330° |
| 2026-05-07 21:33 | -8.30990 | -79.38397 | 33862 ft | 461 kts | 329° |
| 2026-05-07 21:33 | -8.25261 | -79.41293 | 33861 ft | 461 kts | 329° |
| 2026-05-07 21:34 | -8.19503 | -79.44202 | 33864 ft | 461 kts | 330° |
| 2026-05-07 21:34 | -8.13763 | -79.47102 | 33860 ft | 461 kts | 329° |
| 2026-05-07 21:35 | -8.08012 | -79.50006 | 33859 ft | 460 kts | 329° |
| 2026-05-07 21:35 | -8.02297 | -79.52891 | 33859 ft | 461 kts | 329° |
| 2026-05-07 21:36 | -7.96517 | -79.55808 | 33862 ft | 461 kts | 329° |
| 2026-05-07 21:36 | -7.90795 | -79.58695 | 33864 ft | 461 kts | 329° |
| 2026-05-07 21:37 | -7.85024 | -79.61606 | 33864 ft | 463 kts | 329° |
| 2026-05-07 21:37 | -7.79324 | -79.64480 | 33870 ft | 462 kts | 330° |
| 2026-05-07 21:38 | -7.73578 | -79.67375 | 33872 ft | 462 kts | 330° |
| 2026-05-07 21:38 | -7.67833 | -79.70271 | 33875 ft | 462 kts | 330° |
| 2026-05-07 21:39 | -7.62081 | -79.73168 | 33878 ft | 462 kts | 330° |
| 2026-05-07 21:39 | -7.56327 | -79.76065 | 33880 ft | 462 kts | 329° |
| 2026-05-07 21:40 | -7.50544 | -79.78976 | 33880 ft | 462 kts | 330° |
| 2026-05-07 21:40 | -7.44787 | -79.81875 | 33873 ft | 462 kts | 330° |
| 2026-05-07 21:41 | -7.39062 | -79.84756 | 33865 ft | 462 kts | 329° |
| 2026-05-07 21:41 | -7.33265 | -79.87671 | 33864 ft | 462 kts | 329° |
| 2026-05-07 21:42 | -7.27521 | -79.90559 | 33865 ft | 461 kts | 329° |
| 2026-05-07 21:42 | -7.21765 | -79.93453 | 33851 ft | 462 kts | 329° |
| 2026-05-07 21:43 | -7.15983 | -79.96358 | 33861 ft | 464 kts | 330° |
| 2026-05-07 21:43 | -7.10198 | -79.99264 | 33848 ft | 464 kts | 330° |
| 2026-05-07 21:44 | -7.04437 | -80.02158 | 33846 ft | 463 kts | 329° |
| 2026-05-07 21:44 | -6.98653 | -80.05063 | 33855 ft | 463 kts | 329° |
| 2026-05-07 21:45 | -6.92988 | -80.07907 | 33845 ft | 463 kts | 329° |
| 2026-05-07 21:45 | -6.87194 | -80.10814 | 33843 ft | 464 kts | 330° |
| 2026-05-07 21:46 | -6.81532 | -80.13648 | 33840 ft | 463 kts | 329° |
| 2026-05-07 21:46 | -6.75730 | -80.16554 | 33839 ft | 463 kts | 330° |
| 2026-05-07 21:47 | -6.69948 | -80.19447 | 33837 ft | 464 kts | 329° |
| 2026-05-07 21:47 | -6.64131 | -80.22355 | 33836 ft | 464 kts | 330° |
| 2026-05-07 21:48 | -6.58381 | -80.25231 | 33834 ft | 464 kts | 330° |
| 2026-05-07 21:48 | -6.52566 | -80.28138 | 33839 ft | 465 kts | 330° |
| 2026-05-07 21:49 | -6.46950 | -80.30945 | 33845 ft | 464 kts | 330° |
| 2026-05-07 21:49 | -6.41138 | -80.33849 | 33843 ft | 465 kts | 330° |
| 2026-05-07 21:50 | -6.35334 | -80.36749 | 33841 ft | 465 kts | 330° |
| 2026-05-07 21:50 | -6.29514 | -80.39655 | 33843 ft | 465 kts | 330° |
| 2026-05-07 21:51 | -6.23710 | -80.42554 | 33841 ft | 465 kts | 330° |
| 2026-05-07 21:51 | -6.17910 | -80.45448 | 33844 ft | 465 kts | 330° |
| 2026-05-07 21:52 | -6.12084 | -80.48355 | 33847 ft | 465 kts | 330° |
| 2026-05-07 21:52 | -6.06294 | -80.51245 | 33846 ft | 466 kts | 330° |
| 2026-05-07 21:53 | -6.00468 | -80.54150 | 33845 ft | 467 kts | 330° |
| 2026-05-07 21:53 | -5.94627 | -80.57064 | 33852 ft | 467 kts | 330° |
| 2026-05-07 21:54 | -5.88835 | -80.59951 | 33847 ft | 465 kts | 330° |
| 2026-05-07 21:54 | -5.82965 | -80.62878 | 33852 ft | 466 kts | 330° |
| 2026-05-07 21:55 | -5.77124 | -80.65788 | 33863 ft | 466 kts | 330° |
| 2026-05-07 21:55 | -5.71267 | -80.68707 | 33861 ft | 466 kts | 330° |
| 2026-05-07 21:56 | -5.65473 | -80.71592 | 33858 ft | 467 kts | 330° |
| 2026-05-07 21:56 | -5.59625 | -80.74505 | 33859 ft | 467 kts | 330° |
| 2026-05-07 21:57 | -5.53792 | -80.77409 | 33856 ft | 466 kts | 330° |
| 2026-05-07 21:57 | -5.47984 | -80.80300 | 33847 ft | 466 kts | 330° |
| 2026-05-07 21:58 | -5.42170 | -80.83193 | 33846 ft | 465 kts | 330° |
| 2026-05-07 21:58 | -5.36361 | -80.86083 | 33850 ft | 465 kts | 330° |
| 2026-05-07 21:59 | -5.30535 | -80.88982 | 33854 ft | 467 kts | 330° |
| 2026-05-07 21:59 | -5.24717 | -80.91876 | 33850 ft | 467 kts | 330° |
| 2026-05-07 22:00 | -5.18885 | -80.94775 | 33845 ft | 466 kts | 331° |
| 2026-05-07 22:00 | -5.13091 | -80.97660 | 33850 ft | 466 kts | 330° |
| 2026-05-07 22:01 | -5.07254 | -81.00587 | 33835 ft | 466 kts | 331° |
| 2026-05-07 22:01 | -5.01454 | -81.03492 | 33829 ft | 466 kts | 331° |
| 2026-05-07 22:02 | -4.95650 | -81.06398 | 33828 ft | 466 kts | 331° |
| 2026-05-07 22:02 | -4.89825 | -81.09315 | 33835 ft | 466 kts | 331° |
| 2026-05-07 22:03 | -4.83976 | -81.12243 | 33834 ft | 467 kts | 331° |
| 2026-05-07 22:03 | -4.78133 | -81.15168 | 33831 ft | 467 kts | 331° |
| 2026-05-07 22:04 | -4.72320 | -81.18077 | 33835 ft | 468 kts | 331° |
| 2026-05-07 22:04 | -4.66455 | -81.21011 | 33834 ft | 468 kts | 331° |
| 2026-05-07 22:05 | -4.60651 | -81.23914 | 33838 ft | 467 kts | 331° |
| 2026-05-07 22:05 | -4.54497 | -81.26175 | 33852 ft | 471 kts | 342° |
| 2026-05-07 22:06 | -4.48192 | -81.27980 | 33842 ft | 471 kts | 342° |
| 2026-05-07 22:06 | -4.41862 | -81.29768 | 33844 ft | 471 kts | 342° |
| 2026-05-07 22:07 | -4.35545 | -81.31544 | 33849 ft | 472 kts | 342° |
| 2026-05-07 22:07 | -4.29215 | -81.33321 | 33845 ft | 472 kts | 342° |
| 2026-05-07 22:08 | -4.22874 | -81.35100 | 33847 ft | 472 kts | 342° |
| 2026-05-07 22:08 | -4.16508 | -81.36886 | 33844 ft | 472 kts | 342° |
| 2026-05-07 22:09 | -4.10196 | -81.38656 | 33844 ft | 472 kts | 342° |
| 2026-05-07 22:09 | -4.03852 | -81.40435 | 33834 ft | 472 kts | 342° |
| 2026-05-07 22:10 | -3.97506 | -81.42213 | 33828 ft | 472 kts | 342° |
| 2026-05-07 22:10 | -3.91178 | -81.43987 | 33835 ft | 471 kts | 342° |
| 2026-05-07 22:11 | -3.84839 | -81.45764 | 33831 ft | 471 kts | 342° |
| 2026-05-07 22:11 | -3.78481 | -81.47546 | 33829 ft | 471 kts | 342° |
| 2026-05-07 22:12 | -3.72155 | -81.49318 | 33831 ft | 471 kts | 342° |
| 2026-05-07 22:12 | -3.65799 | -81.51099 | 33829 ft | 471 kts | 342° |
| 2026-05-07 22:13 | -3.59514 | -81.52859 | 33831 ft | 470 kts | 342° |
| 2026-05-07 22:13 | -3.53184 | -81.54632 | 33828 ft | 470 kts | 342° |
| 2026-05-07 22:14 | -3.46888 | -81.56394 | 33832 ft | 469 kts | 342° |
| 2026-05-07 22:14 | -3.40560 | -81.58166 | 33828 ft | 469 kts | 342° |
| 2026-05-07 22:15 | -3.34184 | -81.59570 | 33833 ft | 470 kts | 346° |
| 2026-05-07 22:15 | -3.27759 | -81.60928 | 33829 ft | 470 kts | 346° |
| 2026-05-07 22:16 | -3.21358 | -81.62286 | 33833 ft | 470 kts | 346° |
| 2026-05-07 22:16 | -3.14910 | -81.63654 | 33831 ft | 470 kts | 346° |
| 2026-05-07 22:17 | -3.08544 | -81.65005 | 33833 ft | 468 kts | 346° |
| 2026-05-07 22:17 | -3.02150 | -81.66362 | 33840 ft | 468 kts | 346° |
| 2026-05-07 22:18 | -2.92558 | -81.68398 | 33843 ft | 468 kts | 346° |
| 2026-05-07 22:19 | -2.86152 | -81.69758 | 33843 ft | 469 kts | 346° |
| 2026-05-07 22:19 | -2.79752 | -81.71115 | 33844 ft | 469 kts | 346° |
| 2026-05-07 22:20 | -2.73359 | -81.72472 | 33843 ft | 468 kts | 346° |
| 2026-05-07 22:20 | -2.66986 | -81.73824 | 33843 ft | 468 kts | 346° |
| 2026-05-07 22:21 | -2.60599 | -81.75178 | 33843 ft | 469 kts | 346° |
| 2026-05-07 22:21 | -2.54231 | -81.76529 | 33843 ft | 469 kts | 346° |
| 2026-05-07 22:22 | -2.47788 | -81.77895 | 33843 ft | 470 kts | 346° |
| 2026-05-07 22:22 | -2.41408 | -81.79249 | 33843 ft | 470 kts | 347° |
| 2026-05-07 22:23 | -2.34981 | -81.80611 | 33843 ft | 470 kts | 347° |
| 2026-05-07 22:23 | -2.28580 | -81.81968 | 33847 ft | 470 kts | 346° |
| 2026-05-07 22:24 | -2.22153 | -81.83330 | 33855 ft | 470 kts | 347° |
| 2026-05-07 22:24 | -2.15756 | -81.84686 | 33858 ft | 470 kts | 347° |
| 2026-05-07 22:25 | -2.09300 | -81.86055 | 33861 ft | 470 kts | 347° |
| 2026-05-07 22:25 | -2.02952 | -81.87620 | 33868 ft | 468 kts | 341° |
| 2026-05-07 22:26 | -1.96737 | -81.89526 | 33860 ft | 469 kts | 341° |
| 2026-05-07 22:26 | -1.90459 | -81.91455 | 33863 ft | 469 kts | 341° |
| 2026-05-07 22:27 | -1.84194 | -81.93383 | 33861 ft | 469 kts | 341° |
| 2026-05-07 22:27 | -1.77959 | -81.95302 | 33862 ft | 469 kts | 342° |
| 2026-05-07 22:28 | -1.71721 | -81.97221 | 33864 ft | 470 kts | 341° |
| 2026-05-07 22:28 | -1.65456 | -81.99150 | 33861 ft | 470 kts | 341° |
| 2026-05-07 22:29 | -1.59173 | -82.01083 | 33862 ft | 471 kts | 341° |
| 2026-05-07 22:29 | -1.52896 | -82.03015 | 33859 ft | 471 kts | 341° |
| 2026-05-07 22:30 | -1.46638 | -82.04942 | 33856 ft | 470 kts | 341° |
| 2026-05-07 22:30 | -1.40352 | -82.06876 | 33852 ft | 469 kts | 341° |
| 2026-05-07 22:31 | -1.34100 | -82.08800 | 33846 ft | 469 kts | 342° |
| 2026-05-07 22:31 | -1.27858 | -82.10720 | 33843 ft | 470 kts | 342° |
| 2026-05-07 22:32 | -1.21561 | -82.12657 | 33844 ft | 471 kts | 341° |
| 2026-05-07 22:32 | -1.15283 | -82.14589 | 33843 ft | 471 kts | 342° |
| 2026-05-07 22:33 | -1.09009 | -82.16520 | 33843 ft | 470 kts | 342° |
| 2026-05-07 22:33 | -1.02772 | -82.18438 | 33842 ft | 469 kts | 341° |
| 2026-05-07 22:34 | -0.96513 | -82.20364 | 33844 ft | 470 kts | 342° |
| 2026-05-07 22:34 | -0.90231 | -82.22296 | 33843 ft | 471 kts | 342° |
| 2026-05-07 22:35 | -0.83983 | -82.24218 | 33842 ft | 470 kts | 341° |
| 2026-05-07 22:35 | -0.77703 | -82.26150 | 33842 ft | 470 kts | 341° |
| 2026-05-07 22:36 | -0.71423 | -82.28083 | 33842 ft | 470 kts | 342° |
| 2026-05-07 22:36 | -0.65144 | -82.30014 | 33843 ft | 470 kts | 341° |
| 2026-05-07 22:37 | -0.58911 | -82.31932 | 33845 ft | 469 kts | 342° |
| 2026-05-07 22:37 | -0.52694 | -82.33844 | 33845 ft | 468 kts | 342° |
| 2026-05-07 22:38 | -0.46412 | -82.35777 | 33846 ft | 470 kts | 342° |
| 2026-05-07 22:38 | -0.40173 | -82.37696 | 33847 ft | 470 kts | 342° |
| 2026-05-07 22:39 | -0.33899 | -82.39626 | 33852 ft | 469 kts | 342° |
| 2026-05-07 22:39 | -0.27643 | -82.41550 | 33857 ft | 469 kts | 342° |
| 2026-05-07 22:40 | -0.21410 | -82.43468 | 33861 ft | 468 kts | 342° |
| 2026-05-07 22:40 | -0.15199 | -82.45378 | 33862 ft | 466 kts | 342° |
| 2026-05-07 22:41 | -0.08996 | -82.47288 | 33864 ft | 467 kts | 342° |
| 2026-05-07 22:41 | -0.02740 | -82.49212 | 33861 ft | 468 kts | 342° |
| 2026-05-07 22:42 | 0.03511 | -82.51135 | 33864 ft | 467 kts | 342° |
| 2026-05-07 22:42 | 0.09031 | -82.52834 | 33863 ft | 467 kts | 342° |
| 2026-05-07 22:43 | 0.15283 | -82.54758 | 33861 ft | 467 kts | 342° |
| 2026-05-07 22:43 | 0.21511 | -82.56674 | 33863 ft | 468 kts | 342° |
| 2026-05-07 22:44 | 0.27728 | -82.58588 | 33863 ft | 469 kts | 342° |
| 2026-05-07 22:44 | 0.33994 | -82.60516 | 33863 ft | 467 kts | 342° |
| 2026-05-07 22:45 | 0.40206 | -82.62427 | 33861 ft | 468 kts | 342° |
| 2026-05-07 22:45 | 0.46477 | -82.64358 | 33862 ft | 472 kts | 343° |
| 2026-05-07 22:46 | 0.52774 | -82.66295 | 33858 ft | 473 kts | 343° |
| 2026-05-07 22:46 | 0.59102 | -82.68243 | 33853 ft | 472 kts | 343° |
| 2026-05-07 22:47 | 0.65345 | -82.70163 | 33853 ft | 470 kts | 343° |
| 2026-05-07 22:47 | 0.71602 | -82.72089 | 33852 ft | 469 kts | 343° |
| 2026-05-07 22:48 | 0.77851 | -82.74012 | 33847 ft | 469 kts | 343° |
| 2026-05-07 22:48 | 0.84098 | -82.75934 | 33848 ft | 468 kts | 343° |
| 2026-05-07 22:49 | 0.90378 | -82.77867 | 33839 ft | 469 kts | 343° |
| 2026-05-07 22:49 | 0.96622 | -82.79789 | 33842 ft | 470 kts | 343° |
| 2026-05-07 22:50 | 1.02897 | -82.81720 | 33841 ft | 470 kts | 343° |
| 2026-05-07 22:50 | 1.09170 | -82.83651 | 33842 ft | 470 kts | 343° |
| 2026-05-07 22:51 | 1.15440 | -82.85581 | 33843 ft | 470 kts | 343° |
| 2026-05-07 22:51 | 1.21682 | -82.87503 | 33842 ft | 469 kts | 343° |
| 2026-05-07 22:52 | 1.27952 | -82.89433 | 33844 ft | 470 kts | 343° |
| 2026-05-07 22:52 | 1.34197 | -82.91356 | 33841 ft | 470 kts | 343° |
| 2026-05-07 22:53 | 1.40475 | -82.93288 | 33838 ft | 470 kts | 343° |
| 2026-05-07 22:53 | 1.46767 | -82.95055 | 33841 ft | 470 kts | 345° |
| 2026-05-07 22:54 | 1.53067 | -82.96777 | 33843 ft | 470 kts | 345° |
| 2026-05-07 22:54 | 1.59430 | -82.98518 | 33843 ft | 470 kts | 346° |
| 2026-05-07 22:55 | 1.65754 | -83.00247 | 33850 ft | 470 kts | 346° |
| 2026-05-07 22:55 | 1.72086 | -83.01980 | 33857 ft | 471 kts | 345° |
| 2026-05-07 22:56 | 1.78388 | -83.03705 | 33862 ft | 471 kts | 345° |
| 2026-05-07 22:56 | 1.84738 | -83.05443 | 33864 ft | 470 kts | 345° |
| 2026-05-07 22:57 | 1.91046 | -83.07169 | 33862 ft | 471 kts | 345° |
| 2026-05-07 22:57 | 1.97408 | -83.08911 | 33862 ft | 471 kts | 346° |
| 2026-05-07 22:58 | 2.03752 | -83.10648 | 33861 ft | 471 kts | 346° |
| 2026-05-07 22:58 | 2.10074 | -83.12379 | 33853 ft | 470 kts | 346° |
| 2026-05-07 22:59 | 2.16402 | -83.14111 | 33847 ft | 469 kts | 345° |
| 2026-05-07 22:59 | 2.22672 | -83.15828 | 33841 ft | 469 kts | 345° |
| 2026-05-07 23:00 | 2.29022 | -83.17567 | 33845 ft | 470 kts | 346° |
| 2026-05-07 23:00 | 2.35325 | -83.19293 | 33844 ft | 471 kts | 346° |
| 2026-05-07 23:01 | 2.41687 | -83.21036 | 33846 ft | 470 kts | 346° |
| 2026-05-07 23:01 | 2.48009 | -83.22768 | 33847 ft | 470 kts | 346° |
| 2026-05-07 23:02 | 2.54324 | -83.24498 | 33846 ft | 470 kts | 346° |
| 2026-05-07 23:02 | 2.60635 | -83.26226 | 33844 ft | 469 kts | 346° |
| 2026-05-07 23:03 | 2.66940 | -83.27954 | 33844 ft | 469 kts | 345° |
| 2026-05-07 23:03 | 2.73227 | -83.29678 | 33843 ft | 469 kts | 346° |
| 2026-05-07 23:04 | 2.79578 | -83.31418 | 33842 ft | 470 kts | 346° |
| 2026-05-07 23:04 | 2.85899 | -83.33151 | 33845 ft | 470 kts | 346° |
| 2026-05-07 23:05 | 2.92182 | -83.34872 | 33843 ft | 469 kts | 346° |
| 2026-05-07 23:05 | 2.98504 | -83.36606 | 33840 ft | 469 kts | 346° |
| 2026-05-07 23:06 | 3.04787 | -83.38329 | 33843 ft | 469 kts | 346° |
| 2026-05-07 23:06 | 3.11119 | -83.40065 | 33842 ft | 469 kts | 345° |
| 2026-05-07 23:07 | 3.17384 | -83.41784 | 33847 ft | 469 kts | 346° |
| 2026-05-07 23:07 | 3.23709 | -83.43518 | 33843 ft | 468 kts | 345° |
| 2026-05-07 23:08 | 3.29990 | -83.45242 | 33845 ft | 467 kts | 346° |
| 2026-05-07 23:08 | 3.36265 | -83.46963 | 33846 ft | 467 kts | 345° |
| 2026-05-07 23:09 | 3.42543 | -83.48686 | 33850 ft | 467 kts | 345° |
| 2026-05-07 23:09 | 3.48815 | -83.50407 | 33853 ft | 467 kts | 345° |
| 2026-05-07 23:10 | 3.55091 | -83.52130 | 33856 ft | 467 kts | 345° |
| 2026-05-07 23:10 | 3.61385 | -83.53858 | 33848 ft | 466 kts | 345° |
| 2026-05-07 23:11 | 3.67635 | -83.55574 | 33848 ft | 465 kts | 345° |
| 2026-05-07 23:11 | 3.73894 | -83.57292 | 33844 ft | 465 kts | 345° |
| 2026-05-07 23:12 | 3.80184 | -83.59020 | 33843 ft | 466 kts | 345° |
| 2026-05-07 23:12 | 3.86428 | -83.60735 | 33844 ft | 467 kts | 345° |
| 2026-05-07 23:13 | 3.92691 | -83.62456 | 33843 ft | 465 kts | 345° |
| 2026-05-07 23:13 | 3.98962 | -83.64178 | 33841 ft | 465 kts | 345° |
| 2026-05-07 23:14 | 4.05227 | -83.65900 | 33841 ft | 465 kts | 345° |
| 2026-05-07 23:14 | 4.11474 | -83.67618 | 33843 ft | 465 kts | 345° |
| 2026-05-07 23:15 | 4.17740 | -83.69340 | 33843 ft | 466 kts | 345° |
| 2026-05-07 23:15 | 4.24020 | -83.71067 | 33844 ft | 467 kts | 345° |
| 2026-05-07 23:16 | 4.30270 | -83.72786 | 33842 ft | 466 kts | 345° |
| 2026-05-07 23:16 | 4.36573 | -83.74519 | 33843 ft | 466 kts | 345° |
| 2026-05-07 23:17 | 4.42835 | -83.76242 | 33843 ft | 465 kts | 345° |
| 2026-05-07 23:17 | 4.49073 | -83.77958 | 33842 ft | 465 kts | 345° |
| 2026-05-07 23:18 | 4.55321 | -83.79678 | 33842 ft | 466 kts | 345° |
| 2026-05-07 23:18 | 4.61625 | -83.81413 | 33842 ft | 466 kts | 345° |
| 2026-05-07 23:19 | 4.67894 | -83.83138 | 33842 ft | 466 kts | 345° |
| 2026-05-07 23:19 | 4.74119 | -83.84853 | 33842 ft | 465 kts | 345° |
| 2026-05-07 23:20 | 4.80383 | -83.86578 | 33842 ft | 465 kts | 345° |
| 2026-05-07 23:20 | 4.86645 | -83.88303 | 33841 ft | 465 kts | 345° |
| 2026-05-07 23:21 | 4.92899 | -83.90025 | 33842 ft | 466 kts | 345° |
| 2026-05-07 23:21 | 4.99162 | -83.91751 | 33842 ft | 467 kts | 345° |
| 2026-05-07 23:22 | 5.05465 | -83.93488 | 33842 ft | 465 kts | 345° |
| 2026-05-07 23:22 | 5.11689 | -83.95203 | 33847 ft | 464 kts | 345° |
| 2026-05-07 23:23 | 5.17947 | -83.96929 | 33856 ft | 465 kts | 345° |
| 2026-05-07 23:23 | 5.24201 | -83.98654 | 33859 ft | 464 kts | 345° |
| 2026-05-07 23:24 | 5.30427 | -84.00372 | 33863 ft | 465 kts | 345° |
| 2026-05-07 23:24 | 5.36713 | -84.02105 | 33864 ft | 464 kts | 345° |
| 2026-05-07 23:25 | 5.42924 | -84.03819 | 33863 ft | 464 kts | 345° |
| 2026-05-07 23:25 | 5.49166 | -84.05542 | 33863 ft | 464 kts | 345° |
| 2026-05-07 23:26 | 5.55417 | -84.07268 | 33864 ft | 464 kts | 345° |
| 2026-05-07 23:26 | 5.61621 | -84.08981 | 33861 ft | 463 kts | 345° |
| 2026-05-07 23:27 | 5.70970 | -84.11563 | 33856 ft | 463 kts | 345° |
| 2026-05-07 23:27 | 5.77205 | -84.13291 | 33856 ft | 462 kts | 344° |
| 2026-05-07 23:28 | 5.82994 | -84.16055 | 33871 ft | 464 kts | 325° |
| 2026-05-07 23:28 | 5.87855 | -84.20348 | 33848 ft | 467 kts | 317° |
| 2026-05-07 23:29 | 5.92528 | -84.24852 | 33841 ft | 466 kts | 317° |
| 2026-05-07 23:29 | 5.97175 | -84.29392 | 33842 ft | 466 kts | 316° |
| 2026-05-07 23:30 | 6.01814 | -84.33944 | 33841 ft | 465 kts | 316° |
| 2026-05-07 23:30 | 6.06436 | -84.38485 | 33842 ft | 465 kts | 316° |
| 2026-05-07 23:31 | 6.11066 | -84.43037 | 33843 ft | 466 kts | 316° |
| 2026-05-07 23:31 | 6.15702 | -84.47596 | 33844 ft | 467 kts | 316° |
| 2026-05-07 23:32 | 6.20334 | -84.52153 | 33844 ft | 467 kts | 316° |
| 2026-05-07 23:32 | 6.24992 | -84.56736 | 33844 ft | 467 kts | 316° |
| 2026-05-07 23:33 | 6.29628 | -84.61299 | 33844 ft | 467 kts | 316° |
| 2026-05-07 23:33 | 6.34252 | -84.65852 | 33843 ft | 465 kts | 316° |
| 2026-05-07 23:34 | 6.38876 | -84.70406 | 33843 ft | 465 kts | 316° |
| 2026-05-07 23:34 | 6.43513 | -84.74973 | 33844 ft | 465 kts | 316° |
| 2026-05-07 23:35 | 6.48143 | -84.79534 | 33844 ft | 467 kts | 316° |
| 2026-05-07 23:35 | 6.52787 | -84.84112 | 33842 ft | 467 kts | 316° |
| 2026-05-07 23:36 | 6.57438 | -84.88697 | 33843 ft | 467 kts | 316° |
| 2026-05-07 23:36 | 6.62046 | -84.93241 | 33842 ft | 466 kts | 316° |
| 2026-05-07 23:37 | 6.66677 | -84.97810 | 33842 ft | 464 kts | 316° |
| 2026-05-07 23:37 | 6.71279 | -85.02349 | 33854 ft | 465 kts | 316° |
| 2026-05-07 23:38 | 6.75936 | -85.06946 | 33863 ft | 467 kts | 316° |
| 2026-05-07 23:38 | 6.80574 | -85.11525 | 33863 ft | 467 kts | 316° |
| 2026-05-07 23:39 | 6.85184 | -85.16077 | 33863 ft | 466 kts | 316° |
| 2026-05-07 23:39 | 6.89820 | -85.20656 | 33863 ft | 466 kts | 316° |
| 2026-05-07 23:40 | 6.94441 | -85.25222 | 33863 ft | 467 kts | 316° |
| 2026-05-07 23:40 | 6.99094 | -85.29821 | 33863 ft | 466 kts | 316° |
| 2026-05-07 23:41 | 7.03698 | -85.34373 | 33864 ft | 465 kts | 316° |
| 2026-05-07 23:41 | 7.08317 | -85.38940 | 33862 ft | 466 kts | 316° |
| 2026-05-07 23:42 | 7.12930 | -85.43505 | 33865 ft | 467 kts | 316° |
| 2026-05-07 23:42 | 7.17599 | -85.48125 | 33865 ft | 467 kts | 316° |
| 2026-05-07 23:43 | 7.22229 | -85.52708 | 33859 ft | 466 kts | 316° |
| 2026-05-07 23:43 | 7.26844 | -85.57277 | 33857 ft | 465 kts | 316° |
| 2026-05-07 23:44 | 7.31466 | -85.61855 | 33851 ft | 465 kts | 316° |
| 2026-05-07 23:44 | 7.36054 | -85.66401 | 33846 ft | 466 kts | 316° |
| 2026-05-07 23:45 | 7.40689 | -85.70995 | 33843 ft | 467 kts | 316° |
| 2026-05-07 23:45 | 7.45336 | -85.75601 | 33842 ft | 466 kts | 316° |
| 2026-05-07 23:46 | 7.49960 | -85.80187 | 33842 ft | 466 kts | 316° |
| 2026-05-07 23:46 | 7.54551 | -85.84741 | 33842 ft | 466 kts | 316° |
| 2026-05-07 23:47 | 7.59182 | -85.89336 | 33842 ft | 465 kts | 316° |
| 2026-05-07 23:47 | 7.63783 | -85.93903 | 33841 ft | 465 kts | 316° |
| 2026-05-07 23:48 | 7.68423 | -85.98510 | 33843 ft | 466 kts | 316° |
| 2026-05-07 23:48 | 7.73031 | -86.03087 | 33843 ft | 466 kts | 316° |
| 2026-05-07 23:49 | 7.77645 | -86.07672 | 33843 ft | 467 kts | 316° |
| 2026-05-07 23:49 | 7.82272 | -86.12272 | 33843 ft | 465 kts | 316° |
| 2026-05-07 23:50 | 7.86876 | -86.16851 | 33842 ft | 465 kts | 316° |
| 2026-05-07 23:50 | 7.91476 | -86.21426 | 33844 ft | 465 kts | 316° |
| 2026-05-07 23:51 | 7.96094 | -86.26020 | 33843 ft | 466 kts | 316° |
| 2026-05-07 23:51 | 8.00691 | -86.30598 | 33853 ft | 466 kts | 316° |
| 2026-05-07 23:52 | 8.05312 | -86.35200 | 33862 ft | 466 kts | 316° |
| 2026-05-07 23:52 | 8.09944 | -86.39814 | 33858 ft | 466 kts | 316° |
| 2026-05-07 23:53 | 8.14546 | -86.44399 | 33863 ft | 466 kts | 316° |
| 2026-05-07 23:53 | 8.19179 | -86.49018 | 33861 ft | 466 kts | 316° |
| 2026-05-07 23:54 | 8.23781 | -86.53606 | 33861 ft | 465 kts | 316° |
| 2026-05-07 23:54 | 8.28385 | -86.58199 | 33854 ft | 465 kts | 316° |
| 2026-05-07 23:55 | 8.32996 | -86.62799 | 33848 ft | 466 kts | 316° |
| 2026-05-07 23:55 | 8.37603 | -86.67400 | 33845 ft | 465 kts | 316° |
| 2026-05-07 23:56 | 8.42207 | -86.71996 | 33843 ft | 465 kts | 316° |
| 2026-05-07 23:56 | 8.46799 | -86.76583 | 33845 ft | 465 kts | 316° |
| 2026-05-07 23:57 | 8.51409 | -86.81189 | 33844 ft | 464 kts | 316° |
| 2026-05-07 23:57 | 8.55997 | -86.85776 | 33843 ft | 464 kts | 316° |
| 2026-05-07 23:58 | 8.60581 | -86.90360 | 33844 ft | 464 kts | 316° |
| 2026-05-07 23:58 | 8.65158 | -86.94939 | 33843 ft | 464 kts | 316° |
| 2026-05-07 23:59 | 8.69754 | -86.99538 | 33841 ft | 462 kts | 316° |
| 2026-05-07 23:59 | 8.74313 | -87.04102 | 33841 ft | 463 kts | 316° |
| 2026-05-08 00:00 | 8.78914 | -87.08710 | 33842 ft | 464 kts | 316° |
| 2026-05-08 00:00 | 8.83483 | -87.13285 | 33843 ft | 464 kts | 316° |
| 2026-05-08 00:01 | 8.88084 | -87.17897 | 33843 ft | 463 kts | 316° |
| 2026-05-08 00:01 | 8.92630 | -87.22455 | 33842 ft | 463 kts | 316° |
| 2026-05-08 00:02 | 8.97235 | -87.27074 | 33841 ft | 464 kts | 316° |
| 2026-05-08 00:02 | 9.01809 | -87.31661 | 33841 ft | 464 kts | 316° |
| 2026-05-08 00:03 | 9.06375 | -87.36244 | 33842 ft | 464 kts | 316° |
| 2026-05-08 00:03 | 9.10978 | -87.40866 | 33843 ft | 464 kts | 316° |
| 2026-05-08 00:04 | 9.15575 | -87.45483 | 33847 ft | 464 kts | 316° |
| 2026-05-08 00:04 | 9.20156 | -87.50087 | 33844 ft | 464 kts | 316° |
| 2026-05-08 00:05 | 9.24747 | -87.54701 | 33843 ft | 464 kts | 316° |
| 2026-05-08 00:05 | 9.29340 | -87.59321 | 33847 ft | 465 kts | 316° |
| 2026-05-08 00:06 | 9.33918 | -87.63925 | 33843 ft | 465 kts | 316° |
| 2026-05-08 00:06 | 9.38501 | -87.68539 | 33840 ft | 465 kts | 316° |
| 2026-05-08 00:07 | 9.43128 | -87.73196 | 33841 ft | 467 kts | 315° |
| 2026-05-08 00:07 | 9.47718 | -87.77821 | 33836 ft | 465 kts | 316° |
| 2026-05-08 00:08 | 9.52284 | -87.82421 | 33836 ft | 464 kts | 316° |
| 2026-05-08 00:08 | 9.56877 | -87.87050 | 33826 ft | 464 kts | 316° |
| 2026-05-08 00:09 | 9.61435 | -87.91647 | 33834 ft | 464 kts | 315° |
| 2026-05-08 00:09 | 9.66026 | -87.96278 | 33830 ft | 464 kts | 316° |
| 2026-05-08 00:10 | 9.70584 | -88.00877 | 33830 ft | 464 kts | 315° |
| 2026-05-08 00:10 | 9.75174 | -88.05512 | 33826 ft | 464 kts | 316° |
| 2026-05-08 00:11 | 9.79749 | -88.10134 | 33830 ft | 464 kts | 316° |
| 2026-05-08 00:11 | 9.84327 | -88.14759 | 33825 ft | 464 kts | 316° |
| 2026-05-08 00:12 | 9.88894 | -88.19376 | 33825 ft | 464 kts | 316° |
| 2026-05-08 00:12 | 9.93478 | -88.24011 | 33835 ft | 465 kts | 316° |
| 2026-05-08 00:13 | 9.98034 | -88.28621 | 33841 ft | 465 kts | 316° |
| 2026-05-08 00:13 | 10.02615 | -88.33258 | 33841 ft | 465 kts | 316° |
| 2026-05-08 00:14 | 10.07197 | -88.37896 | 33841 ft | 464 kts | 316° |
| 2026-05-08 00:14 | 10.11795 | -88.42529 | 33844 ft | 464 kts | 316° |
| 2026-05-08 00:15 | 10.16362 | -88.47133 | 33844 ft | 464 kts | 316° |
| 2026-05-08 00:15 | 10.20966 | -88.51777 | 33844 ft | 465 kts | 316° |
| 2026-05-08 00:16 | 10.25560 | -88.56411 | 33844 ft | 465 kts | 316° |
| 2026-05-08 00:16 | 10.30128 | -88.61023 | 33844 ft | 465 kts | 316° |
| 2026-05-08 00:17 | 10.34738 | -88.65678 | 33844 ft | 465 kts | 316° |
| 2026-05-08 00:17 | 10.39301 | -88.70287 | 33843 ft | 465 kts | 316° |
| 2026-05-08 00:18 | 10.43900 | -88.74936 | 33843 ft | 465 kts | 316° |
| 2026-05-08 00:18 | 10.48487 | -88.79574 | 33842 ft | 466 kts | 316° |
| 2026-05-08 00:19 | 10.53101 | -88.84242 | 33843 ft | 467 kts | 316° |
| 2026-05-08 00:19 | 10.57693 | -88.88889 | 33843 ft | 466 kts | 316° |
| 2026-05-08 00:20 | 10.62297 | -88.93551 | 33842 ft | 466 kts | 316° |
| 2026-05-08 00:20 | 10.66875 | -88.98187 | 33842 ft | 466 kts | 316° |
| 2026-05-08 00:21 | 10.71482 | -89.02857 | 33842 ft | 466 kts | 316° |
| 2026-05-08 00:21 | 10.76068 | -89.07507 | 33843 ft | 466 kts | 316° |
| 2026-05-08 00:22 | 10.80658 | -89.12162 | 33847 ft | 467 kts | 316° |
| 2026-05-08 00:22 | 10.85267 | -89.16840 | 33844 ft | 467 kts | 316° |
| 2026-05-08 00:23 | 10.89843 | -89.21485 | 33846 ft | 468 kts | 316° |
| 2026-05-08 00:23 | 10.94473 | -89.26189 | 33845 ft | 467 kts | 316° |
| 2026-05-08 00:24 | 10.99054 | -89.30843 | 33842 ft | 466 kts | 316° |
| 2026-05-08 00:24 | 11.03655 | -89.35522 | 33843 ft | 466 kts | 316° |
| 2026-05-08 00:25 | 11.08240 | -89.40185 | 33844 ft | 467 kts | 316° |
| 2026-05-08 00:25 | 11.12855 | -89.44881 | 33842 ft | 468 kts | 316° |
| 2026-05-08 00:26 | 11.17451 | -89.49561 | 33841 ft | 468 kts | 316° |
| 2026-05-08 00:26 | 11.22042 | -89.54237 | 33843 ft | 467 kts | 316° |
| 2026-05-08 00:27 | 11.26563 | -89.58845 | 33842 ft | 466 kts | 316° |
| 2026-05-08 00:27 | 11.31148 | -89.63520 | 33844 ft | 466 kts | 316° |
| 2026-05-08 00:28 | 11.35708 | -89.68171 | 33843 ft | 466 kts | 316° |
| 2026-05-08 00:28 | 11.40306 | -89.72864 | 33843 ft | 467 kts | 316° |
| 2026-05-08 00:29 | 11.44893 | -89.77547 | 33843 ft | 468 kts | 316° |
| 2026-05-08 00:29 | 11.49492 | -89.82246 | 33842 ft | 467 kts | 316° |
| 2026-05-08 00:30 | 11.54091 | -89.86947 | 33843 ft | 466 kts | 316° |
| 2026-05-08 00:30 | 11.58655 | -89.91614 | 33841 ft | 466 kts | 316° |
| 2026-05-08 00:31 | 11.63237 | -89.96300 | 33842 ft | 466 kts | 316° |
| 2026-05-08 00:31 | 11.67838 | -90.01010 | 33842 ft | 467 kts | 316° |
| 2026-05-08 00:32 | 11.72402 | -90.05685 | 33843 ft | 467 kts | 316° |
| 2026-05-08 00:32 | 11.77000 | -90.10396 | 33843 ft | 466 kts | 316° |
| 2026-05-08 00:33 | 11.81553 | -90.15063 | 33843 ft | 466 kts | 316° |
| 2026-05-08 00:33 | 11.86129 | -90.19756 | 33843 ft | 466 kts | 316° |
| 2026-05-08 00:34 | 11.90700 | -90.24445 | 33842 ft | 466 kts | 316° |
| 2026-05-08 00:34 | 11.95291 | -90.29160 | 33845 ft | 466 kts | 316° |
| 2026-05-08 00:35 | 11.99855 | -90.33848 | 33851 ft | 466 kts | 316° |
| 2026-05-08 00:35 | 12.04426 | -90.38545 | 33848 ft | 466 kts | 316° |
| 2026-05-08 00:36 | 12.09002 | -90.43250 | 33852 ft | 464 kts | 316° |
| 2026-05-08 00:36 | 12.13556 | -90.47935 | 33857 ft | 465 kts | 316° |
| 2026-05-08 00:37 | 12.18111 | -90.52624 | 33861 ft | 465 kts | 316° |
| 2026-05-08 00:38 | 12.24899 | -90.59615 | 33859 ft | 465 kts | 316° |
| 2026-05-08 00:38 | 12.29483 | -90.64339 | 33857 ft | 465 kts | 316° |
| 2026-05-08 00:39 | 12.34044 | -90.69042 | 33857 ft | 465 kts | 315° |
| 2026-05-08 00:39 | 12.38591 | -90.73734 | 33857 ft | 465 kts | 315° |
| 2026-05-08 00:40 | 12.43139 | -90.78429 | 33859 ft | 465 kts | 315° |
| 2026-05-08 00:40 | 12.47705 | -90.83143 | 33862 ft | 465 kts | 315° |
| 2026-05-08 00:41 | 12.52238 | -90.87827 | 33862 ft | 465 kts | 315° |
| 2026-05-08 00:41 | 12.56804 | -90.92548 | 33863 ft | 465 kts | 315° |
| 2026-05-08 00:42 | 12.61349 | -90.97250 | 33863 ft | 465 kts | 315° |
| 2026-05-08 00:42 | 12.65921 | -91.01982 | 33862 ft | 465 kts | 315° |
| 2026-05-08 00:43 | 12.70463 | -91.06686 | 33861 ft | 466 kts | 315° |
| 2026-05-08 00:43 | 12.75029 | -91.11417 | 33857 ft | 465 kts | 315° |
| 2026-05-08 00:44 | 12.79570 | -91.16123 | 33845 ft | 464 kts | 315° |
| 2026-05-08 00:44 | 12.84096 | -91.20818 | 33840 ft | 463 kts | 315° |
| 2026-05-08 00:45 | 12.88623 | -91.25517 | 33842 ft | 464 kts | 315° |
| 2026-05-08 00:45 | 12.93168 | -91.30235 | 33840 ft | 464 kts | 315° |
| 2026-05-08 00:46 | 12.97683 | -91.34927 | 33840 ft | 463 kts | 315° |
| 2026-05-08 00:46 | 13.02211 | -91.39634 | 33841 ft | 463 kts | 315° |
| 2026-05-08 00:47 | 13.06746 | -91.44350 | 33843 ft | 462 kts | 315° |
| 2026-05-08 00:47 | 13.11280 | -91.49069 | 33846 ft | 462 kts | 315° |
| 2026-05-08 00:48 | 13.15841 | -91.53819 | 33847 ft | 462 kts | 315° |
| 2026-05-08 00:48 | 13.20375 | -91.58542 | 33846 ft | 464 kts | 315° |
| 2026-05-08 00:49 | 13.24901 | -91.63260 | 33845 ft | 463 kts | 315° |
| 2026-05-08 00:49 | 13.29452 | -91.68007 | 33845 ft | 463 kts | 315° |
| 2026-05-08 00:50 | 13.33977 | -91.72729 | 33845 ft | 463 kts | 315° |
| 2026-05-08 00:50 | 13.38487 | -91.77438 | 33846 ft | 464 kts | 315° |
| 2026-05-08 00:51 | 13.43023 | -91.82179 | 33844 ft | 464 kts | 315° |
| 2026-05-08 00:51 | 13.47532 | -91.86891 | 33848 ft | 465 kts | 315° |
| 2026-05-08 00:52 | 13.52081 | -91.91650 | 33853 ft | 465 kts | 315° |
| 2026-05-08 00:52 | 13.56605 | -91.96384 | 33856 ft | 465 kts | 315° |
| 2026-05-08 00:53 | 13.61161 | -92.01155 | 33861 ft | 466 kts | 315° |
| 2026-05-08 00:53 | 13.65704 | -92.05916 | 33862 ft | 467 kts | 315° |
| 2026-05-08 00:54 | 13.70251 | -92.10683 | 33862 ft | 468 kts | 315° |
| 2026-05-08 00:54 | 13.74650 | -92.15297 | 33861 ft | 468 kts | 315° |
| 2026-05-08 00:55 | 13.79162 | -92.20033 | 33861 ft | 469 kts | 315° |
| 2026-05-08 00:55 | 13.83638 | -92.24735 | 33885 ft | 469 kts | 315° |
| 2026-05-08 00:55 | 13.85894 | -92.27105 | 34048 ft | 467 kts | 315° |
| 2026-05-08 00:56 | 13.87977 | -92.29294 | 34151 ft | 470 kts | 315° |
| 2026-05-08 00:56 | 13.90257 | -92.31691 | 34419 ft | 469 kts | 315° |
| 2026-05-08 00:56 | 13.92551 | -92.34103 | 34675 ft | 469 kts | 315° |
| 2026-05-08 00:56 | 13.94811 | -92.36481 | 34929 ft | 468 kts | 315° |
| 2026-05-08 00:57 | 13.97101 | -92.38890 | 35185 ft | 467 kts | 315° |
| 2026-05-08 00:57 | 13.99351 | -92.41259 | 35438 ft | 466 kts | 315° |
| 2026-05-08 00:57 | 14.01622 | -92.43650 | 35695 ft | 465 kts | 315° |
| 2026-05-08 00:57 | 14.03870 | -92.46019 | 35881 ft | 465 kts | 315° |
| 2026-05-08 00:58 | 14.06146 | -92.48418 | 35861 ft | 467 kts | 315° |
| 2026-05-08 00:58 | 14.10689 | -92.53207 | 35869 ft | 465 kts | 315° |
| 2026-05-08 00:59 | 14.15255 | -92.58022 | 35879 ft | 465 kts | 315° |
| 2026-05-08 00:59 | 14.19806 | -92.62825 | 35881 ft | 467 kts | 315° |
| 2026-05-08 01:00 | 14.24348 | -92.67621 | 35869 ft | 466 kts | 314° |
| 2026-05-08 01:00 | 14.28776 | -92.72492 | 35874 ft | 466 kts | 313° |
| 2026-05-08 01:01 | 14.33164 | -92.77359 | 35874 ft | 466 kts | 313° |
| 2026-05-08 01:01 | 14.37581 | -92.82259 | 35873 ft | 466 kts | 313° |
| 2026-05-08 01:02 | 14.41976 | -92.87138 | 35857 ft | 466 kts | 313° |
| 2026-05-08 01:02 | 14.46398 | -92.92050 | 35854 ft | 466 kts | 313° |
| 2026-05-08 01:03 | 14.50799 | -92.96942 | 35863 ft | 467 kts | 313° |
| 2026-05-08 01:03 | 14.55236 | -93.01876 | 35854 ft | 467 kts | 313° |
| 2026-05-08 01:04 | 14.59636 | -93.06773 | 35855 ft | 466 kts | 313° |
| 2026-05-08 01:04 | 14.64043 | -93.11681 | 35855 ft | 465 kts | 313° |
| 2026-05-08 01:05 | 14.68439 | -93.16578 | 35848 ft | 465 kts | 313° |
| 2026-05-08 01:05 | 14.72847 | -93.21493 | 35844 ft | 466 kts | 313° |
| 2026-05-08 01:06 | 14.77237 | -93.26391 | 35841 ft | 468 kts | 313° |
| 2026-05-08 01:06 | 14.81684 | -93.31355 | 35842 ft | 468 kts | 313° |
| 2026-05-08 01:07 | 14.86075 | -93.36262 | 35842 ft | 466 kts | 313° |
| 2026-05-08 01:07 | 14.90454 | -93.41156 | 35841 ft | 465 kts | 313° |
| 2026-05-08 01:08 | 14.94807 | -93.46026 | 35845 ft | 467 kts | 313° |
| 2026-05-08 01:08 | 14.99218 | -93.50963 | 35842 ft | 467 kts | 313° |
| 2026-05-08 01:09 | 15.03633 | -93.55907 | 35844 ft | 468 kts | 313° |
| 2026-05-08 01:09 | 15.08070 | -93.60880 | 35842 ft | 469 kts | 313° |
| 2026-05-08 01:10 | 15.12510 | -93.65857 | 35846 ft | 468 kts | 313° |
| 2026-05-08 01:10 | 15.17127 | -93.70776 | 35847 ft | 468 kts | 314° |
| 2026-05-08 01:11 | 15.21666 | -93.75601 | 35855 ft | 466 kts | 314° |
| 2026-05-08 01:11 | 15.26189 | -93.80411 | 35860 ft | 465 kts | 314° |
| 2026-05-08 01:12 | 15.30720 | -93.85235 | 35865 ft | 467 kts | 314° |
| 2026-05-08 01:12 | 15.35278 | -93.90091 | 35863 ft | 468 kts | 314° |
| 2026-05-08 01:13 | 15.39795 | -93.94906 | 35865 ft | 468 kts | 314° |
| 2026-05-08 01:13 | 15.44339 | -93.99753 | 35865 ft | 468 kts | 314° |
| 2026-05-08 01:14 | 15.48863 | -94.04582 | 35863 ft | 466 kts | 314° |
| 2026-05-08 01:14 | 15.53381 | -94.09407 | 35864 ft | 465 kts | 314° |
| 2026-05-08 01:15 | 15.57906 | -94.14244 | 35864 ft | 468 kts | 314° |
| 2026-05-08 01:15 | 15.62423 | -94.19075 | 35863 ft | 468 kts | 314° |
| 2026-05-08 01:16 | 15.66978 | -94.23950 | 35865 ft | 467 kts | 314° |
| 2026-05-08 01:16 | 15.71495 | -94.28788 | 35865 ft | 467 kts | 313° |
| 2026-05-08 01:17 | 15.76009 | -94.33627 | 35863 ft | 466 kts | 313° |
| 2026-05-08 01:17 | 15.80502 | -94.38445 | 35865 ft | 466 kts | 313° |
| 2026-05-08 01:18 | 15.85006 | -94.43278 | 35865 ft | 467 kts | 313° |
| 2026-05-08 01:18 | 15.89535 | -94.48142 | 35864 ft | 468 kts | 313° |
| 2026-05-08 01:19 | 15.94080 | -94.53027 | 35864 ft | 468 kts | 313° |
| 2026-05-08 01:19 | 15.98602 | -94.57890 | 35863 ft | 468 kts | 313° |
| 2026-05-08 01:20 | 16.03100 | -94.62730 | 35863 ft | 468 kts | 313° |
| 2026-05-08 01:20 | 16.07669 | -94.67651 | 35857 ft | 468 kts | 313° |
| 2026-05-08 01:21 | 16.12226 | -94.72562 | 35853 ft | 468 kts | 313° |
| 2026-05-08 01:21 | 16.16760 | -94.77453 | 35853 ft | 468 kts | 313° |
| 2026-05-08 01:22 | 16.21269 | -94.82318 | 35855 ft | 468 kts | 313° |
| 2026-05-08 01:22 | 16.25817 | -94.87230 | 35853 ft | 468 kts | 313° |
| 2026-05-08 01:23 | 16.30308 | -94.92083 | 35854 ft | 467 kts | 313° |
| 2026-05-08 01:23 | 16.34835 | -94.96980 | 35855 ft | 468 kts | 313° |
| 2026-05-08 01:24 | 16.39346 | -95.01862 | 35865 ft | 467 kts | 313° |
| 2026-05-08 01:24 | 16.43849 | -95.06739 | 35877 ft | 467 kts | 313° |
| 2026-05-08 01:25 | 16.47758 | -95.12154 | 35898 ft | 467 kts | 299° |
| 2026-05-08 01:25 | 16.51036 | -95.18021 | 35899 ft | 468 kts | 299° |
| 2026-05-08 01:26 | 16.54276 | -95.23895 | 35926 ft | 466 kts | 299° |
| 2026-05-08 01:26 | 16.57480 | -95.29741 | 35947 ft | 466 kts | 298° |
| 2026-05-08 01:27 | 16.60680 | -95.35591 | 35978 ft | 466 kts | 298° |
| 2026-05-08 01:27 | 16.63885 | -95.41457 | 36020 ft | 465 kts | 298° |
| 2026-05-08 01:28 | 16.67077 | -95.47305 | 36065 ft | 467 kts | 298° |
| 2026-05-08 01:28 | 16.70298 | -95.53210 | 36106 ft | 467 kts | 299° |
| 2026-05-08 01:29 | 16.73487 | -95.59062 | 36130 ft | 465 kts | 299° |
| 2026-05-08 01:29 | 16.76684 | -95.64934 | 36145 ft | 464 kts | 298° |
| 2026-05-08 01:30 | 16.79889 | -95.70827 | 36131 ft | 465 kts | 298° |
| 2026-05-08 01:30 | 16.83059 | -95.76660 | 36135 ft | 464 kts | 298° |